sensor_id;sensor_type;location;lat;lon;timestamp;temperature;humidity
37322;DHT22;23697;48.684;9.032;2022-08-04T00:00:02;22.40;62.80
37322;DHT22;23697;48.684;9.032;2022-08-04T00:02:48;22.30;63.30
37322;DHT22;23697;48.684;9.032;2022-08-04T00:05:26;22.20;63.30
37322;DHT22;23697;48.684;9.032;2022-08-04T00:08:01;22.10;63.70
37322;DHT22;23697;48.684;9.032;2022-08-04T00:10:31;22.10;63.90
37322;DHT22;23697;48.684;9.032;2022-08-04T00:13:02;22.00;64.30
37322;DHT22;23697;48.684;9.032;2022-08-04T00:15:31;22.00;64.30
37322;DHT22;23697;48.684;9.032;2022-08-04T00:18:02;21.90;64.40
37322;DHT22;23697;48.684;9.032;2022-08-04T00:20:32;21.90;64.20
37322;DHT22;23697;48.684;9.032;2022-08-04T00:23:00;21.90;63.90
37322;DHT22;23697;48.684;9.032;2022-08-04T00:25:28;21.90;64.10
37322;DHT22;23697;48.684;9.032;2022-08-04T00:27:55;21.80;63.80
37322;DHT22;23697;48.684;9.032;2022-08-04T00:30:23;21.80;63.00
37322;DHT22;23697;48.684;9.032;2022-08-04T00:32:51;21.70;63.00
37322;DHT22;23697;48.684;9.032;2022-08-04T00:35:18;21.60;63.10
37322;DHT22;23697;48.684;9.032;2022-08-04T00:37:46;21.70;63.20
37322;DHT22;23697;48.684;9.032;2022-08-04T00:40:22;21.70;62.40
37322;DHT22;23697;48.684;9.032;2022-08-04T00:42:58;21.60;63.10
37322;DHT22;23697;48.684;9.032;2022-08-04T00:46:04;21.50;63.70
37322;DHT22;23697;48.684;9.032;2022-08-04T00:48:55;21.40;63.50
37322;DHT22;23697;48.684;9.032;2022-08-04T00:51:33;21.40;63.60
37322;DHT22;23697;48.684;9.032;2022-08-04T00:54:09;21.40;64.00
37322;DHT22;23697;48.684;9.032;2022-08-04T00:57:01;21.30;63.50
37322;DHT22;23697;48.684;9.032;2022-08-04T00:59:40;21.30;63.60
37322;DHT22;23697;48.684;9.032;2022-08-04T01:02:16;21.30;63.40
37322;DHT22;23697;48.684;9.032;2022-08-04T01:05:02;21.30;63.50
37322;DHT22;23697;48.684;9.032;2022-08-04T01:07:42;21.20;63.80
37322;DHT22;23697;48.684;9.032;2022-08-04T01:10:24;21.30;64.40
37322;DHT22;23697;48.684;9.032;2022-08-04T01:13:15;21.10;62.40
37322;DHT22;23697;48.684;9.032;2022-08-04T01:15:53;21.10;62.00
37322;DHT22;23697;48.684;9.032;2022-08-04T01:18:32;21.20;62.80
37322;DHT22;23697;48.684;9.032;2022-08-04T01:21:11;21.20;62.90
37322;DHT22;23697;48.684;9.032;2022-08-04T01:23:54;21.20;62.00
37322;DHT22;23697;48.684;9.032;2022-08-04T01:26:42;21.20;62.40
37322;DHT22;23697;48.684;9.032;2022-08-04T01:29:15;21.20;62.80
37322;DHT22;23697;48.684;9.032;2022-08-04T01:31:54;21.20;62.70
37322;DHT22;23697;48.684;9.032;2022-08-04T01:34:22;21.10;63.40
37322;DHT22;23697;48.684;9.032;2022-08-04T01:36:57;21.10;63.10
37322;DHT22;23697;48.684;9.032;2022-08-04T01:39:34;21.10;63.20
37322;DHT22;23697;48.684;9.032;2022-08-04T01:42:09;21.00;62.90
37322;DHT22;23697;48.684;9.032;2022-08-04T01:44:39;21.00;63.40
37322;DHT22;23697;48.684;9.032;2022-08-04T01:47:09;21.00;63.30
37322;DHT22;23697;48.684;9.032;2022-08-04T01:49:37;20.90;63.50
37322;DHT22;23697;48.684;9.032;2022-08-04T01:52:09;20.90;63.50
37322;DHT22;23697;48.684;9.032;2022-08-04T01:54:37;20.90;63.60
37322;DHT22;23697;48.684;9.032;2022-08-04T01:57:09;20.80;64.00
37322;DHT22;23697;48.684;9.032;2022-08-04T01:59:38;20.80;64.00
37322;DHT22;23697;48.684;9.032;2022-08-04T02:02:06;20.80;64.30
37322;DHT22;23697;48.684;9.032;2022-08-04T02:04:35;20.80;63.90
37322;DHT22;23697;48.684;9.032;2022-08-04T02:07:12;20.80;64.00
37322;DHT22;23697;48.684;9.032;2022-08-04T02:09:48;20.70;64.70
37322;DHT22;23697;48.684;9.032;2022-08-04T02:12:24;20.60;64.70
37322;DHT22;23697;48.684;9.032;2022-08-04T02:14:59;20.60;64.90
37322;DHT22;23697;48.684;9.032;2022-08-04T02:17:30;20.40;64.90
37322;DHT22;23697;48.684;9.032;2022-08-04T02:20:08;20.30;65.60
37322;DHT22;23697;48.684;9.032;2022-08-04T02:22:40;20.40;65.60
37322;DHT22;23697;48.684;9.032;2022-08-04T02:25:10;20.40;65.90
37322;DHT22;23697;48.684;9.032;2022-08-04T02:28:12;20.40;66.60
37322;DHT22;23697;48.684;9.032;2022-08-04T02:30:53;20.40;66.50
37322;DHT22;23697;48.684;9.032;2022-08-04T02:33:31;20.40;66.80
37322;DHT22;23697;48.684;9.032;2022-08-04T02:36:03;20.30;67.20
37322;DHT22;23697;48.684;9.032;2022-08-04T02:38:42;20.30;67.60
37322;DHT22;23697;48.684;9.032;2022-08-04T02:41:15;20.30;68.30
37322;DHT22;23697;48.684;9.032;2022-08-04T02:43:43;20.20;68.60
37322;DHT22;23697;48.684;9.032;2022-08-04T02:46:16;20.10;69.10
37322;DHT22;23697;48.684;9.032;2022-08-04T02:48:45;20.10;69.00
37322;DHT22;23697;48.684;9.032;2022-08-04T02:51:14;20.10;69.40
37322;DHT22;23697;48.684;9.032;2022-08-04T02:53:42;20.00;69.10
37322;DHT22;23697;48.684;9.032;2022-08-04T02:56:10;20.10;68.90
37322;DHT22;23697;48.684;9.032;2022-08-04T02:58:41;20.10;69.10
37322;DHT22;23697;48.684;9.032;2022-08-04T03:01:12;20.10;69.00
37322;DHT22;23697;48.684;9.032;2022-08-04T03:03:47;20.10;69.10
37322;DHT22;23697;48.684;9.032;2022-08-04T03:09:58;20.10;69.10
37322;DHT22;23697;48.684;9.032;2022-08-04T03:13:04;19.90;69.40
37322;DHT22;23697;48.684;9.032;2022-08-04T03:16:24;19.90;69.20
37322;DHT22;23697;48.684;9.032;2022-08-04T03:25:14;19.90;69.20
37322;DHT22;23697;48.684;9.032;2022-08-04T03:28:27;19.80;69.40
37322;DHT22;23697;48.684;9.032;2022-08-04T03:31:27;19.70;69.70
37322;DHT22;23697;48.684;9.032;2022-08-04T03:34:16;19.60;70.30
37322;DHT22;23697;48.684;9.032;2022-08-04T03:49:23;19.60;69.70
37322;DHT22;23697;48.684;9.032;2022-08-04T03:52:05;19.60;69.90
37322;DHT22;23697;48.684;9.032;2022-08-04T03:55:20;19.50;70.00
37322;DHT22;23697;48.684;9.032;2022-08-04T03:58:16;19.50;70.30
37322;DHT22;23697;48.684;9.032;2022-08-04T04:00:51;19.40;70.20
37322;DHT22;23697;48.684;9.032;2022-08-04T04:03:39;19.40;70.00
37322;DHT22;23697;48.684;9.032;2022-08-04T04:06:39;19.40;70.20
37322;DHT22;23697;48.684;9.032;2022-08-04T04:09:27;19.30;70.60
37322;DHT22;23697;48.684;9.032;2022-08-04T04:12:13;19.30;70.50
37322;DHT22;23697;48.684;9.032;2022-08-04T04:14:55;19.40;70.30
37322;DHT22;23697;48.684;9.032;2022-08-04T04:17:50;19.20;70.80
37322;DHT22;23697;48.684;9.032;2022-08-04T04:20:45;19.20;71.00
37322;DHT22;23697;48.684;9.032;2022-08-04T04:24:15;19.20;70.90
37322;DHT22;23697;48.684;9.032;2022-08-04T04:26:54;19.20;70.80
37322;DHT22;23697;48.684;9.032;2022-08-04T04:32:51;19.30;70.90
37322;DHT22;23697;48.684;9.032;2022-08-04T04:35:31;19.30;71.10
37322;DHT22;23697;48.684;9.032;2022-08-04T04:41:16;19.40;71.20
37322;DHT22;23697;48.684;9.032;2022-08-04T04:46:44;19.40;71.50
37322;DHT22;23697;48.684;9.032;2022-08-04T04:49:21;19.40;71.70
37322;DHT22;23697;48.684;9.032;2022-08-04T04:52:04;19.40;71.60
37322;DHT22;23697;48.684;9.032;2022-08-04T04:54:35;19.40;71.90
37322;DHT22;23697;48.684;9.032;2022-08-04T04:57:12;19.40;72.20
37322;DHT22;23697;48.684;9.032;2022-08-04T04:59:52;19.40;71.90
37322;DHT22;23697;48.684;9.032;2022-08-04T05:02:42;19.50;72.00
37322;DHT22;23697;48.684;9.032;2022-08-04T05:05:25;19.50;72.20
37322;DHT22;23697;48.684;9.032;2022-08-04T05:08:26;19.50;72.90
37322;DHT22;23697;48.684;9.032;2022-08-04T05:11:06;19.40;72.90
37322;DHT22;23697;48.684;9.032;2022-08-04T05:13:40;19.50;72.70
37322;DHT22;23697;48.684;9.032;2022-08-04T05:16:11;19.50;72.90
37322;DHT22;23697;48.684;9.032;2022-08-04T05:18:41;19.50;73.30
37322;DHT22;23697;48.684;9.032;2022-08-04T05:21:14;19.60;73.20
37322;DHT22;23697;48.684;9.032;2022-08-04T05:23:48;19.60;73.10
37322;DHT22;23697;48.684;9.032;2022-08-04T05:26:17;19.60;72.80
37322;DHT22;23697;48.684;9.032;2022-08-04T05:28:55;19.60;73.40
37322;DHT22;23697;48.684;9.032;2022-08-04T05:31:25;19.70;73.00
37322;DHT22;23697;48.684;9.032;2022-08-04T05:33:54;19.70;72.60
37322;DHT22;23697;48.684;9.032;2022-08-04T05:36:29;19.80;73.10
37322;DHT22;23697;48.684;9.032;2022-08-04T05:38:58;19.90;73.40
37322;DHT22;23697;48.684;9.032;2022-08-04T05:41:27;20.10;72.80
37322;DHT22;23697;48.684;9.032;2022-08-04T05:43:56;20.20;72.30
37322;DHT22;23697;48.684;9.032;2022-08-04T05:46:24;20.30;71.20
37322;DHT22;23697;48.684;9.032;2022-08-04T05:48:52;20.60;70.20
37322;DHT22;23697;48.684;9.032;2022-08-04T05:51:19;20.70;70.60
37322;DHT22;23697;48.684;9.032;2022-08-04T05:53:47;20.80;69.40
37322;DHT22;23697;48.684;9.032;2022-08-04T05:56:15;21.00;69.60
37322;DHT22;23697;48.684;9.032;2022-08-04T05:58:50;21.10;68.50
37322;DHT22;23697;48.684;9.032;2022-08-04T06:01:20;21.20;67.60
37322;DHT22;23697;48.684;9.032;2022-08-04T06:03:49;21.30;67.80
37322;DHT22;23697;48.684;9.032;2022-08-04T06:06:18;21.40;67.80
37322;DHT22;23697;48.684;9.032;2022-08-04T06:08:45;21.40;66.90
37322;DHT22;23697;48.684;9.032;2022-08-04T06:11:13;21.50;66.80
37322;DHT22;23697;48.684;9.032;2022-08-04T06:13:42;21.60;67.70
37322;DHT22;23697;48.684;9.032;2022-08-04T06:16:12;21.60;67.50
37322;DHT22;23697;48.684;9.032;2022-08-04T06:18:43;21.70;67.40
37322;DHT22;23697;48.684;9.032;2022-08-04T06:21:12;21.70;66.60
37322;DHT22;23697;48.684;9.032;2022-08-04T06:23:41;21.90;66.80
37322;DHT22;23697;48.684;9.032;2022-08-04T06:26:10;22.00;66.40
37322;DHT22;23697;48.684;9.032;2022-08-04T06:28:43;22.10;65.50
37322;DHT22;23697;48.684;9.032;2022-08-04T06:31:12;22.30;66.60
37322;DHT22;23697;48.684;9.032;2022-08-04T06:33:48;22.50;66.80
37322;DHT22;23697;48.684;9.032;2022-08-04T06:36:17;22.70;64.90
37322;DHT22;23697;48.684;9.032;2022-08-04T06:38:44;22.80;65.30
37322;DHT22;23697;48.684;9.032;2022-08-04T06:41:11;23.00;63.70
37322;DHT22;23697;48.684;9.032;2022-08-04T06:43:39;23.10;63.00
37322;DHT22;23697;48.684;9.032;2022-08-04T06:46:07;23.30;61.40
37322;DHT22;23697;48.684;9.032;2022-08-04T06:48:35;23.50;61.40
37322;DHT22;23697;48.684;9.032;2022-08-04T06:51:05;23.60;61.20
37322;DHT22;23697;48.684;9.032;2022-08-04T06:53:31;23.70;59.50
37322;DHT22;23697;48.684;9.032;2022-08-04T06:55:59;24.00;60.50
37322;DHT22;23697;48.684;9.032;2022-08-04T06:58:27;24.10;59.40
37322;DHT22;23697;48.684;9.032;2022-08-04T07:00:57;24.30;58.30
37322;DHT22;23697;48.684;9.032;2022-08-04T07:03:26;24.60;58.00
37322;DHT22;23697;48.684;9.032;2022-08-04T07:05:54;24.70;58.50
37322;DHT22;23697;48.684;9.032;2022-08-04T07:08:23;24.90;57.70
37322;DHT22;23697;48.684;9.032;2022-08-04T07:10:50;25.10;57.20
37322;DHT22;23697;48.684;9.032;2022-08-04T07:13:19;25.20;56.20
37322;DHT22;23697;48.684;9.032;2022-08-04T07:15:47;25.50;55.80
37322;DHT22;23697;48.684;9.032;2022-08-04T07:18:15;25.60;56.40
37322;DHT22;23697;48.684;9.032;2022-08-04T07:20:43;25.80;55.90
37322;DHT22;23697;48.684;9.032;2022-08-04T07:23:11;26.00;54.50
37322;DHT22;23697;48.684;9.032;2022-08-04T07:25:43;26.20;55.70
37322;DHT22;23697;48.684;9.032;2022-08-04T07:28:10;26.40;55.20
37322;DHT22;23697;48.684;9.032;2022-08-04T07:30:39;26.60;52.40
37322;DHT22;23697;48.684;9.032;2022-08-04T07:33:09;26.70;52.40
37322;DHT22;23697;48.684;9.032;2022-08-04T07:35:37;26.90;52.20
37322;DHT22;23697;48.684;9.032;2022-08-04T07:38:04;27.10;52.60
37322;DHT22;23697;48.684;9.032;2022-08-04T07:40:31;27.30;51.60
37322;DHT22;23697;48.684;9.032;2022-08-04T07:43:00;27.50;51.00
37322;DHT22;23697;48.684;9.032;2022-08-04T07:45:27;27.60;51.40
37322;DHT22;23697;48.684;9.032;2022-08-04T07:47:54;27.80;51.40
37322;DHT22;23697;48.684;9.032;2022-08-04T07:50:21;28.00;49.50
37322;DHT22;23697;48.684;9.032;2022-08-04T07:52:49;28.10;48.70
37322;DHT22;23697;48.684;9.032;2022-08-04T07:55:17;28.30;48.70
37322;DHT22;23697;48.684;9.032;2022-08-04T07:57:44;28.50;49.30
37322;DHT22;23697;48.684;9.032;2022-08-04T08:00:13;28.60;48.20
37322;DHT22;23697;48.684;9.032;2022-08-04T08:02:41;28.80;48.00
37322;DHT22;23697;48.684;9.032;2022-08-04T08:05:09;29.00;47.90
37322;DHT22;23697;48.684;9.032;2022-08-04T08:07:38;29.10;47.60
37322;DHT22;23697;48.684;9.032;2022-08-04T08:10:11;29.20;47.20
37322;DHT22;23697;48.684;9.032;2022-08-04T08:12:38;29.50;47.10
37322;DHT22;23697;48.684;9.032;2022-08-04T08:15:07;29.60;47.20
37322;DHT22;23697;48.684;9.032;2022-08-04T08:17:36;29.80;46.00
37322;DHT22;23697;48.684;9.032;2022-08-04T08:20:21;29.90;46.40
37322;DHT22;23697;48.684;9.032;2022-08-04T08:22:48;30.10;45.50
37322;DHT22;23697;48.684;9.032;2022-08-04T08:25:15;30.30;45.90
37322;DHT22;23697;48.684;9.032;2022-08-04T08:27:42;30.40;43.50
37322;DHT22;23697;48.684;9.032;2022-08-04T08:30:10;30.40;43.10
37322;DHT22;23697;48.684;9.032;2022-08-04T08:32:39;30.40;42.90
37322;DHT22;23697;48.684;9.032;2022-08-04T08:35:07;30.50;42.80
37322;DHT22;23697;48.684;9.032;2022-08-04T08:37:36;30.80;45.00
37322;DHT22;23697;48.684;9.032;2022-08-04T08:40:20;31.00;42.30
37322;DHT22;23697;48.684;9.032;2022-08-04T08:43:33;31.00;43.70
37322;DHT22;23697;48.684;9.032;2022-08-04T08:46:33;31.20;41.70
37322;DHT22;23697;48.684;9.032;2022-08-04T08:52:29;31.40;40.10
37322;DHT22;23697;48.684;9.032;2022-08-04T08:55:12;31.60;41.80
37322;DHT22;23697;48.684;9.032;2022-08-04T08:57:57;31.70;41.40
37322;DHT22;23697;48.684;9.032;2022-08-04T09:00:32;31.90;42.50
37322;DHT22;23697;48.684;9.032;2022-08-04T09:06:12;32.20;41.00
37322;DHT22;23697;48.684;9.032;2022-08-04T09:09:07;32.30;40.40
37322;DHT22;23697;48.684;9.032;2022-08-04T09:11:40;32.50;40.50
37322;DHT22;23697;48.684;9.032;2022-08-04T09:14:14;32.60;37.50
37322;DHT22;23697;48.684;9.032;2022-08-04T09:16:48;32.60;39.80
37322;DHT22;23697;48.684;9.032;2022-08-04T09:19:22;32.90;40.00
37322;DHT22;23697;48.684;9.032;2022-08-04T09:22:00;33.10;37.10
37322;DHT22;23697;48.684;9.032;2022-08-04T09:24:34;33.20;39.70
37322;DHT22;23697;48.684;9.032;2022-08-04T09:27:14;33.40;37.60
37322;DHT22;23697;48.684;9.032;2022-08-04T09:29:46;33.60;36.30
37322;DHT22;23697;48.684;9.032;2022-08-04T09:32:22;33.60;36.60
37322;DHT22;23697;48.684;9.032;2022-08-04T09:35:02;33.70;36.00
37322;DHT22;23697;48.684;9.032;2022-08-04T09:37:59;33.60;37.40
37322;DHT22;23697;48.684;9.032;2022-08-04T09:40:33;33.80;36.40
37322;DHT22;23697;48.684;9.032;2022-08-04T09:43:10;34.10;36.10
37322;DHT22;23697;48.684;9.032;2022-08-04T09:45:44;34.50;33.70
37322;DHT22;23697;48.684;9.032;2022-08-04T09:48:18;34.50;34.60
37322;DHT22;23697;48.684;9.032;2022-08-04T09:50:52;34.50;32.70
37322;DHT22;23697;48.684;9.032;2022-08-04T09:53:34;34.10;31.80
37322;DHT22;23697;48.684;9.032;2022-08-04T09:56:07;34.10;34.30
37322;DHT22;23697;48.684;9.032;2022-08-04T09:58:49;34.20;33.40
37322;DHT22;23697;48.684;9.032;2022-08-04T10:01:19;34.40;33.70
37322;DHT22;23697;48.684;9.032;2022-08-04T10:03:49;34.60;34.50
37322;DHT22;23697;48.684;9.032;2022-08-04T10:06:33;34.90;34.60
37322;DHT22;23697;48.684;9.032;2022-08-04T10:09:13;35.20;33.10
37322;DHT22;23697;48.684;9.032;2022-08-04T10:11:48;35.40;32.10
37322;DHT22;23697;48.684;9.032;2022-08-04T10:14:35;35.60;31.50
37322;DHT22;23697;48.684;9.032;2022-08-04T10:17:15;35.60;30.20
37322;DHT22;23697;48.684;9.032;2022-08-04T10:19:52;35.60;30.80
37322;DHT22;23697;48.684;9.032;2022-08-04T10:22:25;35.20;29.90
37322;DHT22;23697;48.684;9.032;2022-08-04T10:25:04;35.00;29.40
37322;DHT22;23697;48.684;9.032;2022-08-04T10:27:42;34.90;31.60
37322;DHT22;23697;48.684;9.032;2022-08-04T10:33:40;35.40;30.70
37322;DHT22;23697;48.684;9.032;2022-08-04T10:36:12;35.70;30.50
37322;DHT22;23697;48.684;9.032;2022-08-04T10:38:51;35.90;30.00
37322;DHT22;23697;48.684;9.032;2022-08-04T10:41:31;36.00;28.90
37322;DHT22;23697;48.684;9.032;2022-08-04T10:44:12;35.90;27.20
37322;DHT22;23697;48.684;9.032;2022-08-04T10:46:54;35.80;28.20
37322;DHT22;23697;48.684;9.032;2022-08-04T10:49:34;35.70;29.50
37322;DHT22;23697;48.684;9.032;2022-08-04T10:52:51;36.00;30.30
37322;DHT22;23697;48.684;9.032;2022-08-04T10:55:41;35.80;27.30
37322;DHT22;23697;48.684;9.032;2022-08-04T10:58:50;35.90;27.70
37322;DHT22;23697;48.684;9.032;2022-08-04T11:01:41;36.10;28.00
37322;DHT22;23697;48.684;9.032;2022-08-04T11:04:16;36.10;26.60
37322;DHT22;23697;48.684;9.032;2022-08-04T11:07:36;36.00;26.80
37322;DHT22;23697;48.684;9.032;2022-08-04T11:10:24;35.70;28.30
37322;DHT22;23697;48.684;9.032;2022-08-04T11:12:56;36.10;26.90
37322;DHT22;23697;48.684;9.032;2022-08-04T11:16:01;36.20;27.70
37322;DHT22;23697;48.684;9.032;2022-08-04T11:22:01;36.40;26.50
37322;DHT22;23697;48.684;9.032;2022-08-04T11:24:36;36.40;26.30
37322;DHT22;23697;48.684;9.032;2022-08-04T11:27:17;36.30;27.50
37322;DHT22;23697;48.684;9.032;2022-08-04T11:43:10;36.60;27.90
37322;DHT22;23697;48.684;9.032;2022-08-04T11:52:19;37.10;25.50
37322;DHT22;23697;48.684;9.032;2022-08-04T11:54:51;36.80;26.10
37322;DHT22;23697;48.684;9.032;2022-08-04T11:57:38;36.60;25.80
37322;DHT22;23697;48.684;9.032;2022-08-04T12:00:32;36.60;25.50
37322;DHT22;23697;48.684;9.032;2022-08-04T12:03:18;36.70;26.60
37322;DHT22;23697;48.684;9.032;2022-08-04T12:06:03;36.90;25.80
37322;DHT22;23697;48.684;9.032;2022-08-04T12:09:03;36.90;24.90
37322;DHT22;23697;48.684;9.032;2022-08-04T12:11:47;37.10;26.30
37322;DHT22;23697;48.684;9.032;2022-08-04T12:14:48;37.00;25.70
37322;DHT22;23697;48.684;9.032;2022-08-04T12:17:34;36.80;27.00
37322;DHT22;23697;48.684;9.032;2022-08-04T12:20:24;36.90;28.00
37322;DHT22;23697;48.684;9.032;2022-08-04T12:23:29;37.20;26.70
37322;DHT22;23697;48.684;9.032;2022-08-04T12:28:47;37.00;26.20
37322;DHT22;23697;48.684;9.032;2022-08-04T12:31:24;36.70;27.40
37322;DHT22;23697;48.684;9.032;2022-08-04T12:34:33;36.80;25.80
37322;DHT22;23697;48.684;9.032;2022-08-04T12:37:09;37.10;26.90
37322;DHT22;23697;48.684;9.032;2022-08-04T12:39:39;37.40;25.60
37322;DHT22;23697;48.684;9.032;2022-08-04T12:42:12;37.60;25.90
37322;DHT22;23697;48.684;9.032;2022-08-04T12:44:42;37.70;26.20
37322;DHT22;23697;48.684;9.032;2022-08-04T12:47:12;37.70;26.50
37322;DHT22;23697;48.684;9.032;2022-08-04T12:49:43;37.80;26.40
37322;DHT22;23697;48.684;9.032;2022-08-04T12:52:12;38.00;25.90
37322;DHT22;23697;48.684;9.032;2022-08-04T12:54:41;38.10;26.10
37322;DHT22;23697;48.684;9.032;2022-08-04T12:57:13;37.90;24.80
37322;DHT22;23697;48.684;9.032;2022-08-04T12:59:43;38.00;25.00
37322;DHT22;23697;48.684;9.032;2022-08-04T13:02:13;38.10;26.60
37322;DHT22;23697;48.684;9.032;2022-08-04T13:04:43;38.20;26.10
37322;DHT22;23697;48.684;9.032;2022-08-04T13:07:14;38.20;25.90
37322;DHT22;23697;48.684;9.032;2022-08-04T13:09:41;37.90;26.40
37322;DHT22;23697;48.684;9.032;2022-08-04T13:12:14;37.40;27.50
37322;DHT22;23697;48.684;9.032;2022-08-04T13:14:47;36.90;26.50
37322;DHT22;23697;48.684;9.032;2022-08-04T13:17:14;36.40;27.50
37322;DHT22;23697;48.684;9.032;2022-08-04T13:19:46;36.60;29.20
37322;DHT22;23697;48.684;9.032;2022-08-04T13:22:22;37.10;27.40
37322;DHT22;23697;48.684;9.032;2022-08-04T13:24:50;37.40;26.60
37322;DHT22;23697;48.684;9.032;2022-08-04T13:27:19;37.80;25.90
37322;DHT22;23697;48.684;9.032;2022-08-04T13:29:50;37.80;26.00
37322;DHT22;23697;48.684;9.032;2022-08-04T13:32:18;37.20;25.90
37322;DHT22;23697;48.684;9.032;2022-08-04T13:34:48;36.80;26.10
37322;DHT22;23697;48.684;9.032;2022-08-04T13:37:18;36.20;26.80
37322;DHT22;23697;48.684;9.032;2022-08-04T13:39:48;35.80;27.50
37322;DHT22;23697;48.684;9.032;2022-08-04T13:42:16;35.30;27.40
37322;DHT22;23697;48.684;9.032;2022-08-04T13:44:48;35.00;29.90
37322;DHT22;23697;48.684;9.032;2022-08-04T13:47:20;34.80;29.20
37322;DHT22;23697;48.684;9.032;2022-08-04T13:52:51;34.50;29.70
37322;DHT22;23697;48.684;9.032;2022-08-04T13:55:20;34.30;30.20
37322;DHT22;23697;48.684;9.032;2022-08-04T13:57:52;34.30;31.30
37322;DHT22;23697;48.684;9.032;2022-08-04T14:00:22;34.20;30.40
37322;DHT22;23697;48.684;9.032;2022-08-04T14:02:58;34.20;30.80
37322;DHT22;23697;48.684;9.032;2022-08-04T14:05:27;34.10;29.40
37322;DHT22;23697;48.684;9.032;2022-08-04T14:07:57;34.10;29.40
37322;DHT22;23697;48.684;9.032;2022-08-04T14:10:26;34.10;29.50
37322;DHT22;23697;48.684;9.032;2022-08-04T14:12:53;34.10;28.90
37322;DHT22;23697;48.684;9.032;2022-08-04T14:15:34;34.20;28.70
37322;DHT22;23697;48.684;9.032;2022-08-04T14:18:18;34.20;30.80
37322;DHT22;23697;48.684;9.032;2022-08-04T14:21:04;34.10;29.30
37322;DHT22;23697;48.684;9.032;2022-08-04T14:23:45;34.00;31.70
37322;DHT22;23697;48.684;9.032;2022-08-04T14:26:21;33.90;31.30
37322;DHT22;23697;48.684;9.032;2022-08-04T14:28:48;33.90;32.50
37322;DHT22;23697;48.684;9.032;2022-08-04T14:31:18;33.90;30.50
37322;DHT22;23697;48.684;9.032;2022-08-04T14:33:46;33.90;29.90
37322;DHT22;23697;48.684;9.032;2022-08-04T14:36:14;34.10;31.20
37322;DHT22;23697;48.684;9.032;2022-08-04T14:38:47;34.40;31.40
37322;DHT22;23697;48.684;9.032;2022-08-04T14:41:16;34.30;28.80
37322;DHT22;23697;48.684;9.032;2022-08-04T14:43:45;34.20;30.00
37322;DHT22;23697;48.684;9.032;2022-08-04T14:46:12;34.40;29.70
37322;DHT22;23697;48.684;9.032;2022-08-04T14:48:59;34.70;29.80
37322;DHT22;23697;48.684;9.032;2022-08-04T14:51:26;35.20;29.10
37322;DHT22;23697;48.684;9.032;2022-08-04T14:53:53;35.50;29.20
37322;DHT22;23697;48.684;9.032;2022-08-04T14:56:20;35.80;27.00
37322;DHT22;23697;48.684;9.032;2022-08-04T14:58:58;36.00;27.70
37322;DHT22;23697;48.684;9.032;2022-08-04T15:01:26;36.20;29.60
37322;DHT22;23697;48.684;9.032;2022-08-04T15:03:55;36.60;29.10
37322;DHT22;23697;48.684;9.032;2022-08-04T15:06:25;36.70;29.20
37322;DHT22;23697;48.684;9.032;2022-08-04T15:08:53;36.80;27.20
37322;DHT22;23697;48.684;9.032;2022-08-04T15:11:21;36.80;27.80
37322;DHT22;23697;48.684;9.032;2022-08-04T15:13:48;36.90;27.20
37322;DHT22;23697;48.684;9.032;2022-08-04T15:16:15;36.80;26.50
37322;DHT22;23697;48.684;9.032;2022-08-04T15:18:42;36.60;26.20
37322;DHT22;23697;48.684;9.032;2022-08-04T15:21:11;36.60;26.40
37322;DHT22;23697;48.684;9.032;2022-08-04T15:23:39;36.60;26.70
37322;DHT22;23697;48.684;9.032;2022-08-04T15:26:09;36.70;26.80
37322;DHT22;23697;48.684;9.032;2022-08-04T15:28:40;36.70;26.20
37322;DHT22;23697;48.684;9.032;2022-08-04T15:31:08;36.90;28.70
37322;DHT22;23697;48.684;9.032;2022-08-04T15:33:39;37.00;27.30
37322;DHT22;23697;48.684;9.032;2022-08-04T15:36:13;37.10;26.70
37322;DHT22;23697;48.684;9.032;2022-08-04T15:38:48;37.10;26.80
37322;DHT22;23697;48.684;9.032;2022-08-04T15:41:22;37.20;26.80
37322;DHT22;23697;48.684;9.032;2022-08-04T15:44:05;37.20;26.00
37322;DHT22;23697;48.684;9.032;2022-08-04T15:47:09;37.20;26.30
37322;DHT22;23697;48.684;9.032;2022-08-04T15:49:36;36.70;26.40
37322;DHT22;23697;48.684;9.032;2022-08-04T15:52:07;36.60;27.30
37322;DHT22;23697;48.684;9.032;2022-08-04T15:54:35;36.60;28.20
37322;DHT22;23697;48.684;9.032;2022-08-04T15:57:03;36.70;27.20
37322;DHT22;23697;48.684;9.032;2022-08-04T15:59:59;36.70;27.70
37322;DHT22;23697;48.684;9.032;2022-08-04T16:02:48;36.70;27.00
37322;DHT22;23697;48.684;9.032;2022-08-04T16:05:31;36.70;27.60
37322;DHT22;23697;48.684;9.032;2022-08-04T16:08:15;36.70;27.60
37322;DHT22;23697;48.684;9.032;2022-08-04T16:10:47;36.70;27.50
37322;DHT22;23697;48.684;9.032;2022-08-04T16:13:17;36.60;26.80
37322;DHT22;23697;48.684;9.032;2022-08-04T16:15:50;36.60;26.80
37322;DHT22;23697;48.684;9.032;2022-08-04T16:18:36;36.40;26.70
37322;DHT22;23697;48.684;9.032;2022-08-04T16:21:05;36.20;27.20
37322;DHT22;23697;48.684;9.032;2022-08-04T16:24:14;36.00;26.40
37322;DHT22;23697;48.684;9.032;2022-08-04T16:26:48;35.80;28.00
37322;DHT22;23697;48.684;9.032;2022-08-04T16:29:34;35.70;27.70
37322;DHT22;23697;48.684;9.032;2022-08-04T16:32:13;35.60;28.40
37322;DHT22;23697;48.684;9.032;2022-08-04T16:34:43;35.40;28.10
37322;DHT22;23697;48.684;9.032;2022-08-04T16:37:13;35.30;27.30
37322;DHT22;23697;48.684;9.032;2022-08-04T16:39:43;35.10;27.30
37322;DHT22;23697;48.684;9.032;2022-08-04T16:42:30;35.00;29.20
37322;DHT22;23697;48.684;9.032;2022-08-04T16:45:09;34.90;29.00
37322;DHT22;23697;48.684;9.032;2022-08-04T16:48:00;34.80;30.30
37322;DHT22;23697;48.684;9.032;2022-08-04T16:50:28;34.70;31.40
37322;DHT22;23697;48.684;9.032;2022-08-04T16:52:55;34.60;29.50
37322;DHT22;23697;48.684;9.032;2022-08-04T16:55:25;34.50;29.60
37322;DHT22;23697;48.684;9.032;2022-08-04T16:57:58;34.40;30.80
37322;DHT22;23697;48.684;9.032;2022-08-04T17:00:33;34.20;31.30
37322;DHT22;23697;48.684;9.032;2022-08-04T17:03:01;34.10;31.10
37322;DHT22;23697;48.684;9.032;2022-08-04T17:05:46;34.10;30.50
37322;DHT22;23697;48.684;9.032;2022-08-04T17:08:13;33.90;31.50
37322;DHT22;23697;48.684;9.032;2022-08-04T17:10:49;33.80;32.60
37322;DHT22;23697;48.684;9.032;2022-08-04T17:13:21;33.70;31.40
37322;DHT22;23697;48.684;9.032;2022-08-04T17:15:49;33.60;31.40
37322;DHT22;23697;48.684;9.032;2022-08-04T17:18:18;33.50;30.80
37322;DHT22;23697;48.684;9.032;2022-08-04T17:20:46;33.40;32.30
37322;DHT22;23697;48.684;9.032;2022-08-04T17:23:34;33.30;31.20
37322;DHT22;23697;48.684;9.032;2022-08-04T17:26:05;33.20;32.00
37322;DHT22;23697;48.684;9.032;2022-08-04T17:28:35;33.10;33.10
37322;DHT22;23697;48.684;9.032;2022-08-04T17:31:04;33.10;33.50
37322;DHT22;23697;48.684;9.032;2022-08-04T17:33:33;33.00;33.50